createdAt,value
2022-12-31T00:03:23.565Z,0.95121
2022-12-31T00:08:25.253Z,-0.16217
2022-12-31T00:13:26.941Z,0.32783
2022-12-31T00:18:28.582Z,0.29512
2022-12-31T00:23:30.284Z,-0.41273
2022-12-31T00:28:31.951Z,-0.60771
2022-12-31T00:33:33.594Z,-0.273
2022-12-31T00:38:35.248Z,-0.44385
2022-12-31T00:43:36.897Z,-0.48069
2022-12-31T00:48:38.528Z,0.08521
2022-12-31T00:53:40.154Z,-0.0488
2022-12-31T00:58:41.940Z,-0.09834
2022-12-31T01:03:43.582Z,0.53424
2022-12-31T01:08:45.208Z,1.02869
2022-12-31T01:13:46.874Z,0.79179
2022-12-31T01:18:48.554Z,0.83625
2022-12-31T01:23:50.284Z,0.90897
2022-12-31T01:28:52.290Z,0.5263
2022-12-31T01:33:53.937Z,0.84641
2022-12-31T01:38:55.675Z,0.72351
2022-12-31T01:43:57.348Z,0.57394
2022-12-31T01:48:59.007Z,0.43421
2022-12-31T01:54:00.641Z,1.01218
2022-12-31T01:59:02.268Z,1.00583
2022-12-31T02:04:03.931Z,0.61363
2022-12-31T02:09:05.588Z,0.6492
2022-12-31T02:14:07.392Z,0.3761
2022-12-31T02:19:09.307Z,0.2551
2022-12-31T02:24:10.899Z,0.25256
2022-12-31T02:29:12.503Z,0.54758
2022-12-31T02:34:14.149Z,0.11347
2022-12-31T02:39:15.881Z,0.95946
2022-12-31T02:44:17.508Z,1.1627
2022-12-31T02:49:19.294Z,1.09316
2022-12-31T02:54:20.923Z,1.01218
2022-12-31T02:59:22.817Z,0.89055
2022-12-31T03:04:24.488Z,1.03822
2022-12-31T03:09:26.168Z,1.05759
2022-12-31T03:14:27.850Z,0.96264
2022-12-31T03:19:29.510Z,0.68413
2022-12-31T03:24:31.154Z,1.08141
2022-12-31T03:29:33.101Z,0.96867
2022-12-31T03:34:34.699Z,1.17128
2022-12-31T03:39:36.371Z,1.19795
2022-12-31T03:44:38.025Z,0.90992
2022-12-31T03:49:39.600Z,0.57965
2022-12-31T03:54:41.160Z,0.64158
2022-12-31T03:59:42.788Z,1.01726
2022-12-31T04:04:44.687Z,0.90579
2022-12-31T04:09:46.289Z,0.94898
2022-12-31T04:14:47.950Z,0.94898
2022-12-31T04:19:49.613Z,0.75813
2022-12-31T04:24:51.247Z,0.58347
2022-12-31T04:29:52.992Z,0.3075
2022-12-31T04:34:54.711Z,0.12681
2022-12-31T04:40:01.861Z,0.82291
2022-12-31T04:45:07.063Z,0.60728
2022-12-31T04:50:08.949Z,0.93342
2022-12-31T04:55:10.820Z,0.63205
2022-12-31T05:00:12.460Z,0.0868
2022-12-31T05:05:14.153Z,-0.40511
2022-12-31T05:10:15.883Z,0.22017
2022-12-31T05:15:17.503Z,0.49423
2022-12-31T05:20:19.159Z,0.56314
2022-12-31T05:25:20.861Z,0.86515
2022-12-31T05:30:22.526Z,1.07537
2022-12-31T05:35:24.255Z,0.90897
2022-12-31T05:40:25.919Z,0.85562
2022-12-31T05:45:30.744Z,0.68953
2022-12-31T05:50:33.057Z,0.6835
2022-12-31T05:55:34.621Z,0.77623
2022-12-31T06:00:36.270Z,0.44691
2022-12-31T06:05:38.024Z,0.90103
2022-12-31T06:10:39.856Z,0.9782
2022-12-31T06:15:41.604Z,0.66571
2022-12-31T06:20:43.344Z,0.42659
2022-12-31T06:25:45.061Z,0.54377
2022-12-31T06:30:46.889Z,0.70065
2022-12-31T06:35:48.619Z,0.82799
2022-12-31T06:40:50.248Z,0.85467
2022-12-31T06:45:51.851Z,0.79115
2022-12-31T06:50:53.491Z,0.821
2022-12-31T06:55:55.239Z,0.99217
2022-12-31T07:00:56.985Z,0.62348
2022-12-31T07:05:58.685Z,0.92358
2022-12-31T07:11:00.394Z,0.61967
2022-12-31T07:16:02.126Z,0.69715
2022-12-31T07:21:03.817Z,0.59458
2022-12-31T07:26:05.458Z,0.65238
2022-12-31T07:31:07.136Z,0.46501
2022-12-31T07:36:08.869Z,0.20874
2022-12-31T07:41:10.515Z,0.15761
2022-12-31T07:46:12.267Z,0.02487
2022-12-31T07:51:13.984Z,-0.01419
2022-12-31T07:56:15.704Z,0.6203
2022-12-31T08:01:17.598Z,0.69684
2022-12-31T08:06:19.344Z,0.92231
2022-12-31T08:11:20.963Z,0.75209
2022-12-31T08:16:22.755Z,0.58347
2022-12-31T08:21:28.201Z,0.48057
2022-12-31T08:26:32.860Z,0.81116
2022-12-31T08:31:34.520Z,0.61999
2022-12-31T08:36:36.189Z,0.83911
2022-12-31T08:41:42.688Z,0.51773
2022-12-31T08:46:45.053Z,0.60633
2022-12-31T08:51:46.810Z,0.56727
2022-12-31T08:56:50.627Z,0.17571
2022-12-31T09:01:52.761Z,0.11887
2022-12-31T09:06:54.485Z,0.22875
2022-12-31T09:11:56.334Z,0.17698
2022-12-31T09:16:58.009Z,0.41452
2022-12-31T09:21:59.725Z,-0.12121
2022-12-31T09:27:01.511Z,0.40055
2022-12-31T09:32:03.372Z,0.66381
2022-12-31T09:37:05.135Z,0.59807
2022-12-31T09:42:06.831Z,0.4304
2022-12-31T09:47:08.467Z,0.50979
2022-12-31T09:52:10.133Z,0.59077
2022-12-31T09:57:11.926Z,0.73558
2022-12-31T10:02:13.848Z,0.70954
2022-12-31T10:07:15.617Z,0.8769
2022-12-31T10:12:17.421Z,0.74987
2022-12-31T10:17:19.114Z,0.3021
2022-12-31T10:22:20.691Z,-0.05896
2022-12-31T10:27:22.294Z,0.20144
2022-12-31T10:32:31.075Z,0.09982
2022-12-31T10:37:33.427Z,0.7089
2022-12-31T10:42:35.328Z,0.76289
2022-12-31T10:47:37.029Z,0.17698
2022-12-31T10:52:41.708Z,0.7197
2022-12-31T10:57:43.891Z,0.47613
2022-12-31T11:02:45.883Z,0.72129
2022-12-31T11:07:47.620Z,0.38022
2022-12-31T11:12:49.270Z,0.63491
2022-12-31T11:17:50.926Z,0.02614
2022-12-31T11:22:52.786Z,0.01407
2022-12-31T11:27:54.451Z,0.76861
2022-12-31T11:32:56.171Z,0.70382
2022-12-31T11:37:57.826Z,0.54885
2022-12-31T11:42:59.522Z,0.53869
2022-12-31T11:48:29.710Z,0.54059
2022-12-31T11:53:32.606Z,-0.18123
2022-12-31T11:58:34.422Z,0.00137
2022-12-31T12:03:36.103Z,-0.25871
2022-12-31T12:08:37.918Z,-0.43146
2022-12-31T12:13:39.550Z,-0.03007
2022-12-31T12:18:41.194Z,0.55838
2022-12-31T12:23:42.856Z,0.32656
2022-12-31T12:28:44.724Z,0.51995
2022-12-31T12:33:47.335Z,0.0363
2022-12-31T12:38:49.228Z,0.51392
2022-12-31T12:43:51.049Z,0.7359
2022-12-31T12:48:52.867Z,0.54822
2022-12-31T12:53:54.499Z,0.16396
2022-12-31T12:58:56.146Z,0.67111
2022-12-31T13:04:32.857Z,0.55933
2022-12-31T13:09:35.439Z,0.24304
2022-12-31T13:14:37.272Z,0.58601
2022-12-31T13:19:38.888Z,0.75273
2022-12-31T13:24:40.573Z,0.51836
2022-12-31T13:29:42.196Z,0.43897
2022-12-31T13:34:43.938Z,0.12871
2022-12-31T13:39:45.713Z,0.02455
2022-12-31T13:44:47.408Z,0.33354
2022-12-31T13:49:49.248Z,0.01979
2022-12-31T13:54:50.882Z,-0.19869
2022-12-31T13:59:52.508Z,0.02805
2022-12-31T14:04:54.577Z,0.73526
2022-12-31T14:09:56.252Z,0.77718
2022-12-31T14:14:57.924Z,0.33545
2022-12-31T14:19:59.663Z,0.44437
2022-12-31T14:25:01.383Z,0.49518
2022-12-31T14:30:03.071Z,0.64253
2022-12-31T14:35:04.717Z,0.25892
2022-12-31T14:40:06.371Z,0.33608
2022-12-31T14:45:08.041Z,0.23256
2022-12-31T14:50:09.714Z,-0.62549
2022-12-31T14:55:11.328Z,0.15253
2022-12-31T15:00:13.014Z,0.60665
2022-12-31T15:05:14.641Z,0.68572
2022-12-31T15:10:16.268Z,0.71335
2022-12-31T15:15:17.901Z,0.8661
2022-12-31T15:20:19.542Z,0.57203
2022-12-31T15:25:21.369Z,0.44977
2022-12-31T15:30:23.259Z,0.74733
2022-12-31T15:35:25.131Z,0.57267
2022-12-31T15:40:26.813Z,0.59458
2022-12-31T15:45:28.547Z,0.56314
2022-12-31T15:50:30.334Z,0.24018
2022-12-31T15:55:31.935Z,0.58823
2022-12-31T16:00:33.579Z,0.70859
2022-12-31T16:05:35.218Z,0.75559
2022-12-31T16:10:36.887Z,0.9493
2022-12-31T16:15:38.737Z,1.1789
2022-12-31T16:20:40.435Z,1.09411
2022-12-31T16:25:42.087Z,1.00773
2022-12-31T16:30:43.805Z,0.97534
2022-12-31T16:35:45.556Z,0.80703
2022-12-31T16:40:47.255Z,1.00583
2022-12-31T16:45:48.885Z,0.92612
2022-12-31T16:50:50.581Z,0.98804
2022-12-31T16:55:52.335Z,1.14238
2022-12-31T17:00:53.953Z,1.28433
2022-12-31T17:05:55.684Z,1.26655
2022-12-31T17:10:57.353Z,1.25702
2022-12-31T17:15:59.317Z,1.31006
2022-12-31T17:21:01.013Z,1.34721
2022-12-31T17:26:02.798Z,1.13349
2022-12-31T17:31:04.545Z,1.27322
2022-12-31T17:36:06.222Z,1.39707
2022-12-31T17:41:07.900Z,1.50631
2022-12-31T17:46:09.713Z,1.72766
2022-12-31T17:51:11.662Z,1.69082
2022-12-31T17:56:13.288Z,0.79846
2022-12-31T18:01:15.310Z,0.67556
2022-12-31T18:06:17.389Z,1.65589
2022-12-31T18:11:19.107Z,1.93789
2022-12-31T18:16:20.817Z,1.96139
2022-12-31T18:21:22.536Z,1.73845
2022-12-31T18:26:24.255Z,1.77752
2022-12-31T18:31:26.019Z,2.07127
2022-12-31T18:36:27.726Z,2.19544
2022-12-31T18:41:29.479Z,2.40726
2022-12-31T18:46:31.184Z,2.24212
2022-12-31T18:51:32.819Z,2.11763
2022-12-31T18:56:34.453Z,2.61812
2022-12-31T19:01:36.259Z,2.39074
2022-12-31T19:06:38.236Z,2.33104
2022-12-31T19:11:39.954Z,2.29579
2022-12-31T19:16:41.676Z,2.90394
2022-12-31T19:21:43.307Z,2.73086
2022-12-31T19:26:45.148Z,2.80962
2022-12-31T19:31:46.833Z,2.21036
2022-12-31T19:36:48.572Z,1.07569
2022-12-31T19:41:54.736Z,0.76416
2022-12-31T19:47:00.109Z,1.13412
2022-12-31T19:52:01.732Z,1.51139
2022-12-31T19:57:03.399Z,1.2205
2022-12-31T20:02:05.177Z,2.11319
2022-12-31T20:07:06.935Z,2.50475
2022-12-31T20:12:08.707Z,2.8274
2022-12-31T20:17:10.353Z,1.92328
2022-12-31T20:22:11.988Z,1.9309
2022-12-31T20:27:18.442Z,1.4536
2022-12-31T20:32:20.425Z,0.89881
2022-12-31T20:37:22.315Z,0.87531
2022-12-31T20:42:23.962Z,1.10396
2022-12-31T20:47:25.652Z,1.26242
2022-12-31T20:52:27.331Z,1.33197
2022-12-31T20:57:33.537Z,1.16779
2022-12-31T21:02:42.168Z,0.9909
2022-12-31T21:07:44.887Z,1.68447
2022-12-31T21:12:46.582Z,1.52949
2022-12-31T21:17:48.335Z,1.30974
2022-12-31T21:22:49.975Z,1.16779
2022-12-31T21:27:51.681Z,0.99376
2022-12-31T21:32:53.315Z,1.1681
2022-12-31T21:37:59.262Z,1.68097
2022-12-31T21:43:02.326Z,1.44089
2022-12-31T21:48:04.064Z,1.60762
2022-12-31T21:53:05.749Z,2.20052
2022-12-31T21:58:27.406Z,2.04491
2022-12-31T22:03:29.929Z,2.15638
2022-12-31T22:08:31.586Z,1.02298
2022-12-31T22:13:33.296Z,0.79846
2022-12-31T22:18:35.096Z,0.9728
2022-12-31T22:23:36.865Z,1.19478
2022-12-31T22:28:39.720Z,1.86389
2022-12-31T22:33:41.597Z,1.30625
2022-12-31T22:38:43.188Z,1.32117
2022-12-31T22:43:44.832Z,0.94041
2022-12-31T22:48:46.463Z,0.80163
2022-12-31T22:53:48.417Z,1.3072
2022-12-31T22:58:50.072Z,1.74322
2022-12-31T23:03:51.814Z,1.16588
2022-12-31T23:08:53.514Z,0.9855
2022-12-31T23:13:55.137Z,0.93819
2022-12-31T23:19:01.811Z,0.64253
2022-12-31T23:24:10.060Z,0.64857
2022-12-31T23:29:17.554Z,0.63142
2022-12-31T23:34:19.166Z,0.80449
2022-12-31T23:39:20.803Z,0.80068
2022-12-31T23:44:22.576Z,0.85848
2022-12-31T23:49:24.270Z,1.13539
2022-12-31T23:54:25.902Z,0.72955
2022-12-31T23:59:27.439Z,0.8064
